sensor_id;sensor_type;location;lat;lon;timestamp;P1;durP1;ratioP1;P2;durP2;ratioP2
67278;SDS011;54193;53.746;10.058;2023-08-21T00:01:08;12.80;;;5.50;;
67278;SDS011;54193;53.746;10.058;2023-08-21T00:03:53;10.88;;;5.47;;
67278;SDS011;54193;53.746;10.058;2023-08-21T00:06:39;12.50;;;5.90;;
67278;SDS011;54193;53.746;10.058;2023-08-21T00:09:25;11.35;;;6.05;;
67278;SDS011;54193;53.746;10.058;2023-08-21T00:12:10;15.88;;;6.03;;
67278;SDS011;54193;53.746;10.058;2023-08-21T00:14:56;10.67;;;5.90;;
67278;SDS011;54193;53.746;10.058;2023-08-21T00:17:43;12.38;;;5.90;;
67278;SDS011;54193;53.746;10.058;2023-08-21T00:20:28;11.65;;;5.93;;
67278;SDS011;54193;53.746;10.058;2023-08-21T00:23:14;15.20;;;6.80;;
67278;SDS011;54193;53.746;10.058;2023-08-21T00:25:59;12.82;;;6.93;;
67278;SDS011;54193;53.746;10.058;2023-08-21T00:28:45;14.35;;;6.65;;
67278;SDS011;54193;53.746;10.058;2023-08-21T00:31:31;15.95;;;6.97;;
67278;SDS011;54193;53.746;10.058;2023-08-21T00:34:16;17.00;;;7.27;;
67278;SDS011;54193;53.746;10.058;2023-08-21T00:37:02;14.43;;;6.78;;
67278;SDS011;54193;53.746;10.058;2023-08-21T00:39:48;16.27;;;7.32;;
67278;SDS011;54193;53.746;10.058;2023-08-21T00:42:33;14.27;;;7.07;;
67278;SDS011;54193;53.746;10.058;2023-08-21T00:45:19;14.75;;;6.75;;
67278;SDS011;54193;53.746;10.058;2023-08-21T00:48:05;15.23;;;6.40;;
67278;SDS011;54193;53.746;10.058;2023-08-21T00:50:50;12.05;;;6.53;;
67278;SDS011;54193;53.746;10.058;2023-08-21T00:53:36;13.00;;;6.15;;
67278;SDS011;54193;53.746;10.058;2023-08-21T00:56:22;14.05;;;6.53;;
67278;SDS011;54193;53.746;10.058;2023-08-21T00:59:08;12.80;;;6.20;;
67278;SDS011;54193;53.746;10.058;2023-08-21T01:01:54;14.13;;;6.70;;
67278;SDS011;54193;53.746;10.058;2023-08-21T01:04:40;16.20;;;6.07;;
67278;SDS011;54193;53.746;10.058;2023-08-21T01:07:25;13.80;;;6.10;;
67278;SDS011;54193;53.746;10.058;2023-08-21T01:10:12;10.80;;;5.87;;
67278;SDS011;54193;53.746;10.058;2023-08-21T01:13:09;11.07;;;5.63;;
67278;SDS011;54193;53.746;10.058;2023-08-21T01:16:04;11.85;;;5.45;;
67278;SDS011;54193;53.746;10.058;2023-08-21T01:18:51;12.73;;;6.05;;
67278;SDS011;54193;53.746;10.058;2023-08-21T01:21:39;11.55;;;5.97;;
67278;SDS011;54193;53.746;10.058;2023-08-21T01:24:25;17.33;;;7.32;;
67278;SDS011;54193;53.746;10.058;2023-08-21T01:27:10;15.70;;;7.55;;
67278;SDS011;54193;53.746;10.058;2023-08-21T01:30:00;17.40;;;7.97;;
67278;SDS011;54193;53.746;10.058;2023-08-21T01:35:51;19.17;;;7.95;;
67278;SDS011;54193;53.746;10.058;2023-08-21T01:38:37;16.10;;;8.00;;
67278;SDS011;54193;53.746;10.058;2023-08-21T01:41:23;17.13;;;8.15;;
67278;SDS011;54193;53.746;10.058;2023-08-21T01:44:10;20.08;;;8.63;;
67278;SDS011;54193;53.746;10.058;2023-08-21T01:46:55;18.00;;;8.65;;
67278;SDS011;54193;53.746;10.058;2023-08-21T01:49:41;22.02;;;8.30;;
67278;SDS011;54193;53.746;10.058;2023-08-21T01:52:27;16.10;;;7.88;;
67278;SDS011;54193;53.746;10.058;2023-08-21T01:55:12;16.65;;;7.95;;
67278;SDS011;54193;53.746;10.058;2023-08-21T01:57:58;17.80;;;7.83;;
67278;SDS011;54193;53.746;10.058;2023-08-21T02:00:47;21.00;;;9.07;;
67278;SDS011;54193;53.746;10.058;2023-08-21T02:03:32;23.33;;;10.18;;
67278;SDS011;54193;53.746;10.058;2023-08-21T02:06:18;21.77;;;10.07;;
67278;SDS011;54193;53.746;10.058;2023-08-21T02:09:04;25.00;;;10.82;;
67278;SDS011;54193;53.746;10.058;2023-08-21T02:11:49;27.63;;;12.10;;
67278;SDS011;54193;53.746;10.058;2023-08-21T02:14:35;24.20;;;11.38;;
67278;SDS011;54193;53.746;10.058;2023-08-21T02:17:20;28.02;;;11.48;;
67278;SDS011;54193;53.746;10.058;2023-08-21T02:20:06;26.95;;;11.70;;
67278;SDS011;54193;53.746;10.058;2023-08-21T02:22:52;30.58;;;12.70;;
67278;SDS011;54193;53.746;10.058;2023-08-21T02:25:38;28.13;;;11.83;;
67278;SDS011;54193;53.746;10.058;2023-08-21T02:28:24;26.20;;;12.10;;
67278;SDS011;54193;53.746;10.058;2023-08-21T02:31:09;35.25;;;13.82;;
67278;SDS011;54193;53.746;10.058;2023-08-21T02:33:56;37.50;;;13.77;;
67278;SDS011;54193;53.746;10.058;2023-08-21T02:36:41;36.33;;;14.13;;
67278;SDS011;54193;53.746;10.058;2023-08-21T02:39:27;33.78;;;14.35;;
67278;SDS011;54193;53.746;10.058;2023-08-21T02:42:13;35.30;;;14.60;;
67278;SDS011;54193;53.746;10.058;2023-08-21T02:44:59;34.47;;;13.82;;
67278;SDS011;54193;53.746;10.058;2023-08-21T02:47:44;33.63;;;13.98;;
67278;SDS011;54193;53.746;10.058;2023-08-21T02:50:30;34.25;;;12.93;;
67278;SDS011;54193;53.746;10.058;2023-08-21T02:53:16;32.67;;;12.67;;
67278;SDS011;54193;53.746;10.058;2023-08-21T02:56:01;28.83;;;12.60;;
67278;SDS011;54193;53.746;10.058;2023-08-21T02:58:47;29.02;;;12.20;;
67278;SDS011;54193;53.746;10.058;2023-08-21T03:01:33;27.73;;;11.47;;
67278;SDS011;54193;53.746;10.058;2023-08-21T03:04:20;30.38;;;13.13;;
67278;SDS011;54193;53.746;10.058;2023-08-21T03:07:06;31.77;;;12.70;;
67278;SDS011;54193;53.746;10.058;2023-08-21T03:09:53;30.08;;;12.40;;
67278;SDS011;54193;53.746;10.058;2023-08-21T03:12:39;31.08;;;12.05;;
67278;SDS011;54193;53.746;10.058;2023-08-21T03:15:25;28.23;;;12.23;;
67278;SDS011;54193;53.746;10.058;2023-08-21T03:18:10;28.83;;;12.40;;
67278;SDS011;54193;53.746;10.058;2023-08-21T03:20:56;26.70;;;11.80;;
67278;SDS011;54193;53.746;10.058;2023-08-21T03:23:42;29.65;;;12.27;;
67278;SDS011;54193;53.746;10.058;2023-08-21T03:26:27;28.02;;;11.35;;
67278;SDS011;54193;53.746;10.058;2023-08-21T03:29:13;24.77;;;11.37;;
67278;SDS011;54193;53.746;10.058;2023-08-21T03:31:58;29.35;;;10.88;;
67278;SDS011;54193;53.746;10.058;2023-08-21T03:34:44;26.42;;;11.15;;
67278;SDS011;54193;53.746;10.058;2023-08-21T03:37:30;25.30;;;11.93;;
67278;SDS011;54193;53.746;10.058;2023-08-21T03:40:15;30.35;;;11.77;;
67278;SDS011;54193;53.746;10.058;2023-08-21T03:43:01;26.98;;;11.52;;
67278;SDS011;54193;53.746;10.058;2023-08-21T03:45:47;26.60;;;11.98;;
67278;SDS011;54193;53.746;10.058;2023-08-21T03:48:32;27.10;;;11.33;;
67278;SDS011;54193;53.746;10.058;2023-08-21T03:51:18;26.88;;;11.38;;
67278;SDS011;54193;53.746;10.058;2023-08-21T03:54:04;27.10;;;11.35;;
67278;SDS011;54193;53.746;10.058;2023-08-21T03:56:50;24.90;;;11.10;;
67278;SDS011;54193;53.746;10.058;2023-08-21T03:59:36;28.60;;;11.95;;
67278;SDS011;54193;53.746;10.058;2023-08-21T04:02:22;28.55;;;12.77;;
67278;SDS011;54193;53.746;10.058;2023-08-21T04:05:07;31.40;;;12.65;;
67278;SDS011;54193;53.746;10.058;2023-08-21T04:07:53;32.92;;;13.20;;
67278;SDS011;54193;53.746;10.058;2023-08-21T04:10:39;37.33;;;15.10;;
67278;SDS011;54193;53.746;10.058;2023-08-21T04:13:25;33.55;;;14.02;;
67278;SDS011;54193;53.746;10.058;2023-08-21T04:16:11;35.30;;;13.93;;
67278;SDS011;54193;53.746;10.058;2023-08-21T04:18:57;34.08;;;13.68;;
67278;SDS011;54193;53.746;10.058;2023-08-21T04:21:43;29.80;;;12.80;;
67278;SDS011;54193;53.746;10.058;2023-08-21T04:24:28;33.67;;;13.60;;
67278;SDS011;54193;53.746;10.058;2023-08-21T04:27:14;36.33;;;14.25;;
67278;SDS011;54193;53.746;10.058;2023-08-21T04:30:00;35.45;;;13.80;;
67278;SDS011;54193;53.746;10.058;2023-08-21T04:32:46;39.50;;;15.38;;
67278;SDS011;54193;53.746;10.058;2023-08-21T04:35:36;38.47;;;15.30;;
67278;SDS011;54193;53.746;10.058;2023-08-21T04:38:23;37.97;;;14.35;;
67278;SDS011;54193;53.746;10.058;2023-08-21T04:41:09;40.13;;;14.73;;
67278;SDS011;54193;53.746;10.058;2023-08-21T04:43:55;39.73;;;14.57;;
67278;SDS011;54193;53.746;10.058;2023-08-21T04:46:40;33.97;;;13.63;;
67278;SDS011;54193;53.746;10.058;2023-08-21T04:49:26;38.38;;;15.05;;
67278;SDS011;54193;53.746;10.058;2023-08-21T04:52:11;36.30;;;14.30;;
67278;SDS011;54193;53.746;10.058;2023-08-21T04:54:57;46.45;;;15.57;;
67278;SDS011;54193;53.746;10.058;2023-08-21T04:57:43;40.97;;;14.80;;
67278;SDS011;54193;53.746;10.058;2023-08-21T05:00:28;41.63;;;15.57;;
67278;SDS011;54193;53.746;10.058;2023-08-21T05:03:14;47.22;;;16.95;;
67278;SDS011;54193;53.746;10.058;2023-08-21T05:06:00;52.38;;;17.95;;
67278;SDS011;54193;53.746;10.058;2023-08-21T05:08:45;46.95;;;16.92;;
67278;SDS011;54193;53.746;10.058;2023-08-21T05:11:31;45.13;;;16.13;;
67278;SDS011;54193;53.746;10.058;2023-08-21T05:14:16;38.05;;;15.70;;
67278;SDS011;54193;53.746;10.058;2023-08-21T05:17:04;37.92;;;15.40;;
67278;SDS011;54193;53.746;10.058;2023-08-21T05:19:50;38.70;;;14.17;;
67278;SDS011;54193;53.746;10.058;2023-08-21T05:22:35;42.90;;;15.20;;
67278;SDS011;54193;53.746;10.058;2023-08-21T05:25:21;41.65;;;14.50;;
67278;SDS011;54193;53.746;10.058;2023-08-21T05:28:07;38.22;;;14.02;;
67278;SDS011;54193;53.746;10.058;2023-08-21T05:30:52;38.13;;;14.18;;
67278;SDS011;54193;53.746;10.058;2023-08-21T05:33:38;45.17;;;15.48;;
67278;SDS011;54193;53.746;10.058;2023-08-21T05:36:24;41.22;;;15.40;;
67278;SDS011;54193;53.746;10.058;2023-08-21T05:39:09;37.47;;;13.87;;
67278;SDS011;54193;53.746;10.058;2023-08-21T05:41:55;33.28;;;13.20;;
67278;SDS011;54193;53.746;10.058;2023-08-21T05:44:41;36.17;;;12.27;;
67278;SDS011;54193;53.746;10.058;2023-08-21T05:47:27;33.07;;;12.47;;
67278;SDS011;54193;53.746;10.058;2023-08-21T05:50:12;37.55;;;13.27;;
67278;SDS011;54193;53.746;10.058;2023-08-21T05:52:58;30.02;;;12.07;;
67278;SDS011;54193;53.746;10.058;2023-08-21T05:55:46;30.98;;;11.70;;
67278;SDS011;54193;53.746;10.058;2023-08-21T05:58:32;32.95;;;11.43;;
67278;SDS011;54193;53.746;10.058;2023-08-21T06:01:18;28.88;;;11.63;;
67278;SDS011;54193;53.746;10.058;2023-08-21T06:04:03;26.35;;;10.93;;
67278;SDS011;54193;53.746;10.058;2023-08-21T06:06:49;29.23;;;11.40;;
67278;SDS011;54193;53.746;10.058;2023-08-21T06:09:35;30.08;;;10.77;;
67278;SDS011;54193;53.746;10.058;2023-08-21T06:12:21;29.33;;;11.93;;
67278;SDS011;54193;53.746;10.058;2023-08-21T06:15:07;27.00;;;10.67;;
67278;SDS011;54193;53.746;10.058;2023-08-21T06:17:58;28.48;;;10.75;;
67278;SDS011;54193;53.746;10.058;2023-08-21T06:20:44;23.65;;;10.50;;
67278;SDS011;54193;53.746;10.058;2023-08-21T06:23:30;21.20;;;8.60;;
67278;SDS011;54193;53.746;10.058;2023-08-21T06:26:15;21.35;;;8.60;;
67278;SDS011;54193;53.746;10.058;2023-08-21T06:29:01;21.73;;;8.40;;
67278;SDS011;54193;53.746;10.058;2023-08-21T06:31:46;19.52;;;7.85;;
67278;SDS011;54193;53.746;10.058;2023-08-21T06:34:32;19.87;;;7.87;;
67278;SDS011;54193;53.746;10.058;2023-08-21T06:37:18;15.00;;;6.68;;
67278;SDS011;54193;53.746;10.058;2023-08-21T06:40:04;17.42;;;5.97;;
67278;SDS011;54193;53.746;10.058;2023-08-21T06:42:50;18.10;;;5.90;;
67278;SDS011;54193;53.746;10.058;2023-08-21T06:45:36;15.77;;;5.68;;
67278;SDS011;54193;53.746;10.058;2023-08-21T06:48:21;16.92;;;5.50;;
67278;SDS011;54193;53.746;10.058;2023-08-21T06:51:07;15.98;;;5.10;;
67278;SDS011;54193;53.746;10.058;2023-08-21T06:53:53;11.80;;;4.63;;
67278;SDS011;54193;53.746;10.058;2023-08-21T06:56:39;13.32;;;4.40;;
67278;SDS011;54193;53.746;10.058;2023-08-21T06:59:25;10.80;;;4.10;;
67278;SDS011;54193;53.746;10.058;2023-08-21T07:02:10;11.97;;;4.50;;
67278;SDS011;54193;53.746;10.058;2023-08-21T07:04:56;9.60;;;3.58;;
67278;SDS011;54193;53.746;10.058;2023-08-21T07:07:42;10.95;;;3.20;;
67278;SDS011;54193;53.746;10.058;2023-08-21T07:10:27;8.80;;;3.20;;
67278;SDS011;54193;53.746;10.058;2023-08-21T07:13:14;11.00;;;3.58;;
67278;SDS011;54193;53.746;10.058;2023-08-21T07:16:00;9.68;;;3.28;;
67278;SDS011;54193;53.746;10.058;2023-08-21T07:18:50;10.57;;;3.08;;
67278;SDS011;54193;53.746;10.058;2023-08-21T07:21:35;9.65;;;3.20;;
67278;SDS011;54193;53.746;10.058;2023-08-21T07:24:23;11.35;;;3.05;;
67278;SDS011;54193;53.746;10.058;2023-08-21T07:27:09;8.73;;;3.03;;
67278;SDS011;54193;53.746;10.058;2023-08-21T07:29:54;10.07;;;2.90;;
67278;SDS011;54193;53.746;10.058;2023-08-21T07:32:40;9.38;;;2.90;;
67278;SDS011;54193;53.746;10.058;2023-08-21T07:35:26;9.40;;;3.63;;
67278;SDS011;54193;53.746;10.058;2023-08-21T07:38:11;8.20;;;2.37;;
67278;SDS011;54193;53.746;10.058;2023-08-21T07:41:04;7.38;;;2.55;;
67278;SDS011;54193;53.746;10.058;2023-08-21T07:43:50;6.50;;;2.47;;
67278;SDS011;54193;53.746;10.058;2023-08-21T07:46:36;10.63;;;2.63;;
67278;SDS011;54193;53.746;10.058;2023-08-21T07:49:22;9.55;;;2.22;;
67278;SDS011;54193;53.746;10.058;2023-08-21T07:52:07;6.15;;;2.50;;
67278;SDS011;54193;53.746;10.058;2023-08-21T07:54:53;8.35;;;2.50;;
67278;SDS011;54193;53.746;10.058;2023-08-21T07:57:39;7.07;;;2.10;;
67278;SDS011;54193;53.746;10.058;2023-08-21T08:00:25;8.07;;;2.20;;
67278;SDS011;54193;53.746;10.058;2023-08-21T08:03:10;9.45;;;2.47;;
67278;SDS011;54193;53.746;10.058;2023-08-21T08:05:57;7.53;;;2.20;;
67278;SDS011;54193;53.746;10.058;2023-08-21T08:08:43;7.43;;;2.05;;
67278;SDS011;54193;53.746;10.058;2023-08-21T08:11:28;6.50;;;2.00;;
67278;SDS011;54193;53.746;10.058;2023-08-21T08:14:14;6.68;;;2.33;;
67278;SDS011;54193;53.746;10.058;2023-08-21T08:17:00;5.85;;;2.10;;
67278;SDS011;54193;53.746;10.058;2023-08-21T08:19:46;6.73;;;2.17;;
67278;SDS011;54193;53.746;10.058;2023-08-21T08:22:31;6.15;;;1.88;;
67278;SDS011;54193;53.746;10.058;2023-08-21T08:25:17;7.38;;;1.92;;
67278;SDS011;54193;53.746;10.058;2023-08-21T08:28:03;6.85;;;1.95;;
67278;SDS011;54193;53.746;10.058;2023-08-21T08:30:49;6.25;;;2.13;;
67278;SDS011;54193;53.746;10.058;2023-08-21T08:33:35;6.70;;;1.95;;
67278;SDS011;54193;53.746;10.058;2023-08-21T08:36:21;5.75;;;1.90;;
67278;SDS011;54193;53.746;10.058;2023-08-21T08:39:07;4.20;;;1.50;;
67278;SDS011;54193;53.746;10.058;2023-08-21T08:42:02;4.60;;;1.70;;
67278;SDS011;54193;53.746;10.058;2023-08-21T08:44:49;4.05;;;1.65;;
67278;SDS011;54193;53.746;10.058;2023-08-21T08:47:35;4.73;;;1.80;;
67278;SDS011;54193;53.746;10.058;2023-08-21T08:50:21;5.50;;;1.63;;
67278;SDS011;54193;53.746;10.058;2023-08-21T08:53:08;6.60;;;1.83;;
67278;SDS011;54193;53.746;10.058;2023-08-21T08:55:55;6.22;;;1.88;;
67278;SDS011;54193;53.746;10.058;2023-08-21T08:58:42;5.95;;;1.60;;
67278;SDS011;54193;53.746;10.058;2023-08-21T09:01:28;7.75;;;1.83;;
67278;SDS011;54193;53.746;10.058;2023-08-21T09:04:14;5.60;;;1.80;;
67278;SDS011;54193;53.746;10.058;2023-08-21T09:07:06;5.07;;;2.00;;
67278;SDS011;54193;53.746;10.058;2023-08-21T09:09:52;5.53;;;1.70;;
67278;SDS011;54193;53.746;10.058;2023-08-21T09:12:38;4.18;;;1.60;;
67278;SDS011;54193;53.746;10.058;2023-08-21T09:15:27;5.53;;;1.90;;
67278;SDS011;54193;53.746;10.058;2023-08-21T09:18:15;5.63;;;1.80;;
67278;SDS011;54193;53.746;10.058;2023-08-21T09:21:01;5.32;;;2.08;;
67278;SDS011;54193;53.746;10.058;2023-08-21T09:23:47;6.15;;;2.20;;
67278;SDS011;54193;53.746;10.058;2023-08-21T09:26:33;6.65;;;2.10;;
67278;SDS011;54193;53.746;10.058;2023-08-21T09:29:19;6.95;;;1.90;;
67278;SDS011;54193;53.746;10.058;2023-08-21T09:32:05;5.65;;;1.70;;
67278;SDS011;54193;53.746;10.058;2023-08-21T09:34:51;5.00;;;1.90;;
67278;SDS011;54193;53.746;10.058;2023-08-21T09:37:37;6.35;;;2.10;;
67278;SDS011;54193;53.746;10.058;2023-08-21T09:40:22;5.88;;;1.63;;
67278;SDS011;54193;53.746;10.058;2023-08-21T09:43:09;5.10;;;1.60;;
67278;SDS011;54193;53.746;10.058;2023-08-21T09:45:58;5.78;;;1.80;;
67278;SDS011;54193;53.746;10.058;2023-08-21T09:48:44;5.47;;;1.90;;
67278;SDS011;54193;53.746;10.058;2023-08-21T09:51:34;6.65;;;2.17;;
67278;SDS011;54193;53.746;10.058;2023-08-21T09:54:19;5.97;;;2.10;;
67278;SDS011;54193;53.746;10.058;2023-08-21T09:57:06;5.07;;;2.00;;
67278;SDS011;54193;53.746;10.058;2023-08-21T09:59:52;3.97;;;1.90;;
67278;SDS011;54193;53.746;10.058;2023-08-21T10:02:39;5.60;;;1.90;;
67278;SDS011;54193;53.746;10.058;2023-08-21T10:05:26;6.28;;;2.30;;
67278;SDS011;54193;53.746;10.058;2023-08-21T10:08:12;8.20;;;2.10;;
67278;SDS011;54193;53.746;10.058;2023-08-21T10:11:01;6.93;;;2.20;;
67278;SDS011;54193;53.746;10.058;2023-08-21T10:13:50;5.38;;;2.00;;
67278;SDS011;54193;53.746;10.058;2023-08-21T10:16:37;6.25;;;2.55;;
67278;SDS011;54193;53.746;10.058;2023-08-21T10:19:23;7.28;;;2.78;;
67278;SDS011;54193;53.746;10.058;2023-08-21T10:22:08;5.03;;;1.85;;
67278;SDS011;54193;53.746;10.058;2023-08-21T10:24:55;7.35;;;2.25;;
67278;SDS011;54193;53.746;10.058;2023-08-21T10:27:44;5.40;;;2.05;;
67278;SDS011;54193;53.746;10.058;2023-08-21T10:30:31;7.77;;;2.30;;
67278;SDS011;54193;53.746;10.058;2023-08-21T10:33:16;7.88;;;2.70;;
67278;SDS011;54193;53.746;10.058;2023-08-21T10:36:04;5.60;;;2.28;;
67278;SDS011;54193;53.746;10.058;2023-08-21T10:39:00;5.17;;;2.00;;
67278;SDS011;54193;53.746;10.058;2023-08-21T10:42:02;6.10;;;2.13;;
67278;SDS011;54193;53.746;10.058;2023-08-21T10:45:02;6.13;;;1.95;;
67278;SDS011;54193;53.746;10.058;2023-08-21T10:47:56;4.90;;;1.92;;
67278;SDS011;54193;53.746;10.058;2023-08-21T10:50:43;5.13;;;1.80;;
67278;SDS011;54193;53.746;10.058;2023-08-21T10:53:29;5.75;;;1.85;;
67278;SDS011;54193;53.746;10.058;2023-08-21T10:56:15;5.45;;;2.10;;
67278;SDS011;54193;53.746;10.058;2023-08-21T10:59:01;7.03;;;2.00;;
67278;SDS011;54193;53.746;10.058;2023-08-21T11:01:47;5.43;;;1.70;;
67278;SDS011;54193;53.746;10.058;2023-08-21T11:04:40;3.65;;;1.58;;
67278;SDS011;54193;53.746;10.058;2023-08-21T11:07:27;6.63;;;1.80;;
67278;SDS011;54193;53.746;10.058;2023-08-21T11:10:14;5.38;;;1.80;;
67278;SDS011;54193;53.746;10.058;2023-08-21T11:13:06;5.00;;;1.70;;
67278;SDS011;54193;53.746;10.058;2023-08-21T11:16:02;5.82;;;1.77;;
67278;SDS011;54193;53.746;10.058;2023-08-21T11:18:49;5.78;;;1.70;;
67278;SDS011;54193;53.746;10.058;2023-08-21T11:21:35;5.32;;;1.60;;
67278;SDS011;54193;53.746;10.058;2023-08-21T11:24:20;4.40;;;1.70;;
67278;SDS011;54193;53.746;10.058;2023-08-21T11:27:07;4.33;;;1.50;;
67278;SDS011;54193;53.746;10.058;2023-08-21T11:29:55;4.55;;;1.60;;
67278;SDS011;54193;53.746;10.058;2023-08-21T11:32:40;3.22;;;1.42;;
67278;SDS011;54193;53.746;10.058;2023-08-21T11:35:26;3.63;;;1.60;;
67278;SDS011;54193;53.746;10.058;2023-08-21T11:38:30;4.35;;;1.60;;
67278;SDS011;54193;53.746;10.058;2023-08-21T11:41:16;6.82;;;1.80;;
67278;SDS011;54193;53.746;10.058;2023-08-21T11:44:02;4.95;;;1.60;;
67278;SDS011;54193;53.746;10.058;2023-08-21T11:46:52;4.95;;;1.70;;
67278;SDS011;54193;53.746;10.058;2023-08-21T11:49:40;4.78;;;1.60;;
67278;SDS011;54193;53.746;10.058;2023-08-21T11:52:29;6.72;;;1.70;;
67278;SDS011;54193;53.746;10.058;2023-08-21T11:55:17;4.17;;;1.43;;
67278;SDS011;54193;53.746;10.058;2023-08-21T11:58:02;4.90;;;1.55;;
67278;SDS011;54193;53.746;10.058;2023-08-21T12:00:50;4.47;;;1.30;;
67278;SDS011;54193;53.746;10.058;2023-08-21T12:03:39;4.50;;;1.53;;
67278;SDS011;54193;53.746;10.058;2023-08-21T12:06:25;3.75;;;1.55;;
67278;SDS011;54193;53.746;10.058;2023-08-21T12:09:11;3.75;;;1.20;;
67278;SDS011;54193;53.746;10.058;2023-08-21T12:11:57;5.93;;;2.17;;
67278;SDS011;54193;53.746;10.058;2023-08-21T12:14:43;4.28;;;1.60;;
67278;SDS011;54193;53.746;10.058;2023-08-21T12:17:29;4.05;;;1.40;;
67278;SDS011;54193;53.746;10.058;2023-08-21T12:20:14;4.68;;;1.52;;
67278;SDS011;54193;53.746;10.058;2023-08-21T12:23:00;6.57;;;1.30;;
67278;SDS011;54193;53.746;10.058;2023-08-21T12:25:46;3.80;;;1.42;;
67278;SDS011;54193;53.746;10.058;2023-08-21T12:28:31;4.00;;;1.25;;
67278;SDS011;54193;53.746;10.058;2023-08-21T12:31:17;2.33;;;1.00;;
67278;SDS011;54193;53.746;10.058;2023-08-21T12:34:03;4.15;;;1.20;;
67278;SDS011;54193;53.746;10.058;2023-08-21T12:36:50;4.68;;;1.20;;
67278;SDS011;54193;53.746;10.058;2023-08-21T12:39:37;3.55;;;1.20;;
67278;SDS011;54193;53.746;10.058;2023-08-21T12:42:23;4.38;;;1.27;;
67278;SDS011;54193;53.746;10.058;2023-08-21T12:45:09;3.88;;;1.40;;
67278;SDS011;54193;53.746;10.058;2023-08-21T12:47:54;4.65;;;1.60;;
67278;SDS011;54193;53.746;10.058;2023-08-21T12:50:40;3.23;;;1.40;;
67278;SDS011;54193;53.746;10.058;2023-08-21T12:53:26;4.90;;;1.40;;
67278;SDS011;54193;53.746;10.058;2023-08-21T12:56:11;5.43;;;1.38;;
67278;SDS011;54193;53.746;10.058;2023-08-21T12:58:57;4.60;;;1.67;;
67278;SDS011;54193;53.746;10.058;2023-08-21T13:01:44;3.33;;;1.40;;
67278;SDS011;54193;53.746;10.058;2023-08-21T13:04:30;4.15;;;1.40;;
67278;SDS011;54193;53.746;10.058;2023-08-21T13:07:16;3.92;;;1.33;;
67278;SDS011;54193;53.746;10.058;2023-08-21T13:10:01;3.95;;;1.38;;
67278;SDS011;54193;53.746;10.058;2023-08-21T13:12:47;3.83;;;1.40;;
67278;SDS011;54193;53.746;10.058;2023-08-21T13:15:34;3.88;;;1.27;;
67278;SDS011;54193;53.746;10.058;2023-08-21T13:18:20;3.53;;;1.30;;
67278;SDS011;54193;53.746;10.058;2023-08-21T13:21:05;2.83;;;1.48;;
67278;SDS011;54193;53.746;10.058;2023-08-21T13:23:51;4.00;;;1.40;;
67278;SDS011;54193;53.746;10.058;2023-08-21T13:26:37;4.37;;;1.50;;
67278;SDS011;54193;53.746;10.058;2023-08-21T13:29:23;2.85;;;1.35;;
67278;SDS011;54193;53.746;10.058;2023-08-21T13:32:09;3.67;;;1.58;;
67278;SDS011;54193;53.746;10.058;2023-08-21T13:34:55;3.95;;;1.50;;
67278;SDS011;54193;53.746;10.058;2023-08-21T13:37:41;3.63;;;1.40;;
67278;SDS011;54193;53.746;10.058;2023-08-21T13:40:27;4.55;;;1.50;;
67278;SDS011;54193;53.746;10.058;2023-08-21T13:43:14;4.90;;;1.55;;
67278;SDS011;54193;53.746;10.058;2023-08-21T13:46:00;4.47;;;1.60;;
67278;SDS011;54193;53.746;10.058;2023-08-21T13:48:46;6.82;;;1.60;;
67278;SDS011;54193;53.746;10.058;2023-08-21T13:51:32;3.60;;;1.52;;
67278;SDS011;54193;53.746;10.058;2023-08-21T13:54:17;3.87;;;1.50;;
67278;SDS011;54193;53.746;10.058;2023-08-21T13:57:03;3.97;;;1.40;;
67278;SDS011;54193;53.746;10.058;2023-08-21T13:59:48;4.03;;;1.45;;
67278;SDS011;54193;53.746;10.058;2023-08-21T14:02:34;3.83;;;1.40;;
67278;SDS011;54193;53.746;10.058;2023-08-21T14:05:20;5.18;;;1.58;;
67278;SDS011;54193;53.746;10.058;2023-08-21T14:08:05;3.25;;;1.70;;
67278;SDS011;54193;53.746;10.058;2023-08-21T14:10:51;3.53;;;1.55;;
67278;SDS011;54193;53.746;10.058;2023-08-21T14:13:37;3.10;;;1.50;;
67278;SDS011;54193;53.746;10.058;2023-08-21T14:16:22;6.30;;;1.90;;
67278;SDS011;54193;53.746;10.058;2023-08-21T14:19:08;6.05;;;1.80;;
67278;SDS011;54193;53.746;10.058;2023-08-21T14:21:54;3.53;;;1.50;;
67278;SDS011;54193;53.746;10.058;2023-08-21T14:24:40;6.25;;;1.75;;
67278;SDS011;54193;53.746;10.058;2023-08-21T14:27:25;7.43;;;1.73;;
67278;SDS011;54193;53.746;10.058;2023-08-21T14:30:11;5.57;;;1.70;;
67278;SDS011;54193;53.746;10.058;2023-08-21T14:32:58;3.80;;;1.55;;
67278;SDS011;54193;53.746;10.058;2023-08-21T14:35:43;10.10;;;1.90;;
67278;SDS011;54193;53.746;10.058;2023-08-21T14:38:29;6.07;;;1.70;;
67278;SDS011;54193;53.746;10.058;2023-08-21T14:41:15;5.20;;;1.57;;
67278;SDS011;54193;53.746;10.058;2023-08-21T14:44:02;6.38;;;1.83;;
67278;SDS011;54193;53.746;10.058;2023-08-21T14:46:48;19.13;;;2.40;;
67278;SDS011;54193;53.746;10.058;2023-08-21T14:49:33;3.90;;;1.80;;
67278;SDS011;54193;53.746;10.058;2023-08-21T14:52:19;5.60;;;1.60;;
67278;SDS011;54193;53.746;10.058;2023-08-21T14:55:05;14.40;;;2.03;;
67278;SDS011;54193;53.746;10.058;2023-08-21T14:57:51;3.65;;;1.60;;
67278;SDS011;54193;53.746;10.058;2023-08-21T15:00:36;5.18;;;1.65;;
67278;SDS011;54193;53.746;10.058;2023-08-21T15:03:22;6.88;;;1.90;;
67278;SDS011;54193;53.746;10.058;2023-08-21T15:06:07;4.10;;;1.55;;
67278;SDS011;54193;53.746;10.058;2023-08-21T15:08:53;4.47;;;1.40;;
67278;SDS011;54193;53.746;10.058;2023-08-21T15:11:39;4.38;;;1.60;;
67278;SDS011;54193;53.746;10.058;2023-08-21T15:14:24;4.45;;;1.55;;
67278;SDS011;54193;53.746;10.058;2023-08-21T15:17:10;4.60;;;1.73;;
67278;SDS011;54193;53.746;10.058;2023-08-21T15:19:55;4.55;;;1.70;;
67278;SDS011;54193;53.746;10.058;2023-08-21T15:22:41;4.15;;;1.60;;
67278;SDS011;54193;53.746;10.058;2023-08-21T15:25:30;3.33;;;1.50;;
67278;SDS011;54193;53.746;10.058;2023-08-21T15:28:15;4.70;;;1.50;;
67278;SDS011;54193;53.746;10.058;2023-08-21T15:31:01;4.50;;;1.48;;
67278;SDS011;54193;53.746;10.058;2023-08-21T15:33:48;4.10;;;1.52;;
67278;SDS011;54193;53.746;10.058;2023-08-21T15:36:34;5.23;;;1.73;;
67278;SDS011;54193;53.746;10.058;2023-08-21T15:39:20;5.50;;;1.70;;
67278;SDS011;54193;53.746;10.058;2023-08-21T15:42:05;3.70;;;1.50;;
67278;SDS011;54193;53.746;10.058;2023-08-21T15:44:51;4.03;;;1.63;;
67278;SDS011;54193;53.746;10.058;2023-08-21T15:47:36;3.03;;;1.35;;
67278;SDS011;54193;53.746;10.058;2023-08-21T15:50:22;4.70;;;2.05;;
67278;SDS011;54193;53.746;10.058;2023-08-21T15:53:08;3.92;;;1.52;;
67278;SDS011;54193;53.746;10.058;2023-08-21T15:55:54;5.60;;;2.75;;
67278;SDS011;54193;53.746;10.058;2023-08-21T15:58:40;4.97;;;1.60;;
67278;SDS011;54193;53.746;10.058;2023-08-21T16:01:25;4.90;;;1.70;;
67278;SDS011;54193;53.746;10.058;2023-08-21T16:04:11;3.17;;;1.60;;
67278;SDS011;54193;53.746;10.058;2023-08-21T16:06:56;3.28;;;1.55;;
67278;SDS011;54193;53.746;10.058;2023-08-21T16:09:42;2.93;;;1.50;;
67278;SDS011;54193;53.746;10.058;2023-08-21T16:12:28;4.35;;;1.52;;
67278;SDS011;54193;53.746;10.058;2023-08-21T16:15:13;3.78;;;1.55;;
67278;SDS011;54193;53.746;10.058;2023-08-21T16:17:59;4.63;;;1.58;;
67278;SDS011;54193;53.746;10.058;2023-08-21T16:20:45;3.90;;;1.50;;